sensor_id;sensor_type;location;lat;lon;timestamp;pressure;altitude;pressure_sealevel;temperature;humidity
76122;BME280;64853;53.200;6.080;2023-02-28T00:04:33;103276.50;;;17.73;39.36
76122;BME280;64853;53.200;6.080;2023-02-28T00:09:24;103267.00;;;17.68;39.52
76122;BME280;64853;53.200;6.080;2023-02-28T00:14:18;103276.59;;;17.66;39.35
76122;BME280;64853;53.200;6.080;2023-02-28T00:19:10;103216.69;;;17.29;39.31
76122;BME280;64853;53.200;6.080;2023-02-28T00:24:04;103272.81;;;17.60;39.11
76122;BME280;64853;53.200;6.080;2023-02-28T00:28:56;103276.00;;;17.57;39.43
76122;BME280;64853;53.200;6.080;2023-02-28T00:33:49;103270.09;;;17.54;39.26
76122;BME280;64853;53.200;6.080;2023-02-28T00:38:42;103270.94;;;17.54;39.36
76122;BME280;64853;53.200;6.080;2023-02-28T00:43:34;103256.16;;;17.48;39.29
76122;BME280;64853;53.200;6.080;2023-02-28T00:48:26;103259.16;;;17.47;39.20
76122;BME280;64853;53.200;6.080;2023-02-28T00:53:19;103266.78;;;17.45;39.37
76122;BME280;64853;53.200;6.080;2023-02-28T00:58:12;103265.09;;;17.44;39.29
76122;BME280;64853;53.200;6.080;2023-02-28T01:03:04;103242.09;;;17.31;39.38
76122;BME280;64853;53.200;6.080;2023-02-28T01:07:56;103263.25;;;17.38;39.26
76122;BME280;64853;53.200;6.080;2023-02-28T01:12:49;103262.63;;;17.36;39.43
76122;BME280;64853;53.200;6.080;2023-02-28T01:17:41;103235.59;;;17.19;39.27
76122;BME280;64853;53.200;6.080;2023-02-28T01:22:34;103244.84;;;17.31;39.38
76122;BME280;64853;53.200;6.080;2023-02-28T01:27:26;103223.38;;;17.15;39.33
76122;BME280;64853;53.200;6.080;2023-02-28T01:32:20;103229.81;;;17.27;39.33
76122;BME280;64853;53.200;6.080;2023-02-28T01:37:12;103227.19;;;17.14;39.23
76122;BME280;64853;53.200;6.080;2023-02-28T01:42:04;103226.91;;;17.22;39.40
76122;BME280;64853;53.200;6.080;2023-02-28T01:46:56;103229.03;;;17.20;39.25
76122;BME280;64853;53.200;6.080;2023-02-28T01:51:50;103230.09;;;17.19;39.43
76122;BME280;64853;53.200;6.080;2023-02-28T01:56:49;103233.31;;;17.16;39.38
76122;BME280;64853;53.200;6.080;2023-02-28T02:01:43;103228.19;;;17.13;39.37
76122;BME280;64853;53.200;6.080;2023-02-28T02:06:38;103225.91;;;17.10;39.36
76122;BME280;64853;53.200;6.080;2023-02-28T02:11:33;103200.38;;;16.96;39.41
76122;BME280;64853;53.200;6.080;2023-02-28T02:16:36;103192.34;;;16.94;39.52
76122;BME280;64853;53.200;6.080;2023-02-28T02:22:08;103208.97;;;17.06;39.36
76122;BME280;64853;53.200;6.080;2023-02-28T02:27:28;103207.50;;;17.04;39.47
76122;BME280;64853;53.200;6.080;2023-02-28T02:32:44;103193.41;;;16.93;39.35
76122;BME280;64853;53.200;6.080;2023-02-28T02:37:43;103206.28;;;17.00;39.29
76122;BME280;64853;53.200;6.080;2023-02-28T02:42:41;103209.03;;;17.00;39.43
76122;BME280;64853;53.200;6.080;2023-02-28T02:47:34;103204.81;;;16.97;39.58
76122;BME280;64853;53.200;6.080;2023-02-28T02:52:34;103123.59;;;16.49;39.56
76122;BME280;64853;53.200;6.080;2023-02-28T02:57:35;103189.84;;;16.86;39.58
76122;BME280;64853;53.200;6.080;2023-02-28T03:02:29;103186.41;;;16.91;39.35
76122;BME280;64853;53.200;6.080;2023-02-28T03:07:25;103192.16;;;16.89;39.66
76122;BME280;64853;53.200;6.080;2023-02-28T03:12:17;103195.09;;;16.94;39.26
76122;BME280;64853;53.200;6.080;2023-02-28T03:17:33;103200.31;;;17.03;39.18
76122;BME280;64853;53.200;6.080;2023-02-28T03:22:39;103198.84;;;17.00;39.33
76122;BME280;64853;53.200;6.080;2023-02-28T03:27:42;103173.16;;;16.81;39.32
76122;BME280;64853;53.200;6.080;2023-02-28T03:32:43;103192.56;;;16.93;39.30
76122;BME280;64853;53.200;6.080;2023-02-28T03:37:39;103179.56;;;17.00;39.48
76122;BME280;64853;53.200;6.080;2023-02-28T03:42:35;103174.44;;;17.04;39.10
76122;BME280;64853;53.200;6.080;2023-02-28T03:47:31;103186.78;;;17.01;39.05
76122;BME280;64853;53.200;6.080;2023-02-28T03:52:28;103175.81;;;16.94;39.38
76122;BME280;64853;53.200;6.080;2023-02-28T03:57:24;103182.53;;;16.99;39.15
76122;BME280;64853;53.200;6.080;2023-02-28T04:02:17;103183.81;;;17.03;39.19
76122;BME280;64853;53.200;6.080;2023-02-28T04:07:11;103176.59;;;17.02;39.05
76122;BME280;64853;53.200;6.080;2023-02-28T04:12:05;103184.69;;;16.97;39.30
76122;BME280;64853;53.200;6.080;2023-02-28T04:16:57;103183.63;;;16.98;39.14
76122;BME280;64853;53.200;6.080;2023-02-28T04:21:51;103188.66;;;17.01;39.02
76122;BME280;64853;53.200;6.080;2023-02-28T04:26:44;103179.13;;;17.03;39.12
76122;BME280;64853;53.200;6.080;2023-02-28T04:31:38;103175.97;;;17.00;39.25
76122;BME280;64853;53.200;6.080;2023-02-28T04:36:30;103182.09;;;17.02;39.17
76122;BME280;64853;53.200;6.080;2023-02-28T04:41:22;103176.94;;;17.12;39.00
76122;BME280;64853;53.200;6.080;2023-02-28T04:46:14;103175.97;;;17.31;38.91
76122;BME280;64853;53.200;6.080;2023-02-28T04:51:11;103161.88;;;17.40;38.56
76122;BME280;64853;53.200;6.080;2023-02-28T04:56:04;103184.69;;;17.72;38.55
76122;BME280;64853;53.200;6.080;2023-02-28T05:01:01;103188.53;;;17.90;38.37
76122;BME280;64853;53.200;6.080;2023-02-28T05:05:54;103190.91;;;18.05;38.20
76122;BME280;64853;53.200;6.080;2023-02-28T05:10:46;103196.13;;;18.13;38.13
76122;BME280;64853;53.200;6.080;2023-02-28T05:15:38;103189.00;;;18.24;38.15
76122;BME280;64853;53.200;6.080;2023-02-28T05:20:30;103165.53;;;18.14;38.23
76122;BME280;64853;53.200;6.080;2023-02-28T05:25:21;103201.91;;;18.42;37.88
76122;BME280;64853;53.200;6.080;2023-02-28T05:30:15;103194.53;;;18.54;38.10
76122;BME280;64853;53.200;6.080;2023-02-28T05:35:08;103197.19;;;18.61;37.73
76122;BME280;64853;53.200;6.080;2023-02-28T05:40:00;103201.06;;;18.71;37.83
76122;BME280;64853;53.200;6.080;2023-02-28T05:44:51;103200.75;;;18.80;37.28
76122;BME280;64853;53.200;6.080;2023-02-28T05:49:44;103205.97;;;18.88;37.53
76122;BME280;64853;53.200;6.080;2023-02-28T05:54:35;103206.69;;;18.95;37.61
76122;BME280;64853;53.200;6.080;2023-02-28T05:59:27;103203.59;;;19.03;37.38
76122;BME280;64853;53.200;6.080;2023-02-28T06:04:20;103215.16;;;19.12;37.25
76122;BME280;64853;53.200;6.080;2023-02-28T06:09:14;103199.41;;;19.13;36.87
76122;BME280;64853;53.200;6.080;2023-02-28T06:14:06;103188.81;;;19.09;37.22
76122;BME280;64853;53.200;6.080;2023-02-28T06:19:00;103204.97;;;19.24;37.25
76122;BME280;64853;53.200;6.080;2023-02-28T06:23:52;103199.78;;;19.28;37.26
76122;BME280;64853;53.200;6.080;2023-02-28T06:28:46;103216.63;;;19.38;36.71
76122;BME280;64853;53.200;6.080;2023-02-28T06:33:39;103223.38;;;19.42;36.64
76122;BME280;64853;53.200;6.080;2023-02-28T06:38:31;103233.34;;;19.43;36.82
76122;BME280;64853;53.200;6.080;2023-02-28T06:43:24;103230.94;;;19.47;37.01
76122;BME280;64853;53.200;6.080;2023-02-28T06:48:17;103240.66;;;19.50;36.47
76122;BME280;64853;53.200;6.080;2023-02-28T06:53:09;103251.72;;;19.50;37.14
76122;BME280;64853;53.200;6.080;2023-02-28T06:58:00;103267.47;;;19.49;36.85
76122;BME280;64853;53.200;6.080;2023-02-28T07:02:52;103274.72;;;19.50;36.97
76122;BME280;64853;53.200;6.080;2023-02-28T07:07:46;103277.72;;;19.48;37.01
76122;BME280;64853;53.200;6.080;2023-02-28T07:12:38;103273.38;;;19.41;37.20
76122;BME280;64853;53.200;6.080;2023-02-28T07:17:30;103287.44;;;19.39;36.62
76122;BME280;64853;53.200;6.080;2023-02-28T07:22:21;103285.50;;;19.40;37.22
76122;BME280;64853;53.200;6.080;2023-02-28T07:27:14;103289.13;;;19.40;37.44
76122;BME280;64853;53.200;6.080;2023-02-28T07:32:13;103295.59;;;19.46;39.90
76122;BME280;64853;53.200;6.080;2023-02-28T07:37:05;103298.59;;;19.44;39.00
76122;BME280;64853;53.200;6.080;2023-02-28T07:41:56;103296.50;;;19.58;39.11
76122;BME280;64853;53.200;6.080;2023-02-28T07:46:49;103301.19;;;19.58;38.57
76122;BME280;64853;53.200;6.080;2023-02-28T07:51:41;103304.88;;;19.52;38.98
76122;BME280;64853;53.200;6.080;2023-02-28T07:56:33;103307.03;;;19.50;39.21
76122;BME280;64853;53.200;6.080;2023-02-28T08:01:24;103300.06;;;19.47;38.77
76122;BME280;64853;53.200;6.080;2023-02-28T08:06:19;103308.84;;;19.44;38.36
76122;BME280;64853;53.200;6.080;2023-02-28T08:11:11;103311.84;;;19.42;38.23
76122;BME280;64853;53.200;6.080;2023-02-28T08:16:03;103321.06;;;19.36;38.26
76122;BME280;64853;53.200;6.080;2023-02-28T08:20:54;103309.88;;;19.31;40.04
76122;BME280;64853;53.200;6.080;2023-02-28T08:25:54;103314.94;;;19.34;39.39
76122;BME280;64853;53.200;6.080;2023-02-28T08:30:46;103323.31;;;19.27;39.57
76122;BME280;64853;53.200;6.080;2023-02-28T08:35:37;103322.72;;;19.25;38.96
76122;BME280;64853;53.200;6.080;2023-02-28T08:40:29;103326.81;;;19.23;38.87
76122;BME280;64853;53.200;6.080;2023-02-28T08:45:22;103330.06;;;19.20;38.79
76122;BME280;64853;53.200;6.080;2023-02-28T08:50:13;103319.22;;;19.18;39.32
76122;BME280;64853;53.200;6.080;2023-02-28T08:55:06;103320.28;;;19.17;38.90
76122;BME280;64853;53.200;6.080;2023-02-28T08:59:59;103323.28;;;19.16;38.59
76122;BME280;64853;53.200;6.080;2023-02-28T09:04:55;103315.00;;;19.16;38.88
76122;BME280;64853;53.200;6.080;2023-02-28T09:09:47;103330.53;;;19.17;39.06
76122;BME280;64853;53.200;6.080;2023-02-28T09:14:48;103335.56;;;19.20;38.52
76122;BME280;64853;53.200;6.080;2023-02-28T09:19:40;103328.22;;;19.14;38.69
76122;BME280;64853;53.200;6.080;2023-02-28T09:24:33;103339.41;;;19.19;38.30
76122;BME280;64853;53.200;6.080;2023-02-28T09:29:25;103337.72;;;19.18;38.48
76122;BME280;64853;53.200;6.080;2023-02-28T09:34:17;103336.28;;;19.15;38.15
76122;BME280;64853;53.200;6.080;2023-02-28T09:39:09;103302.69;;;19.00;37.88
76122;BME280;64853;53.200;6.080;2023-02-28T09:44:03;103326.06;;;19.16;38.27
76122;BME280;64853;53.200;6.080;2023-02-28T09:49:00;103323.66;;;19.19;38.04
76122;BME280;64853;53.200;6.080;2023-02-28T09:53:53;103330.59;;;19.10;37.64
76122;BME280;64853;53.200;6.080;2023-02-28T09:58:47;103333.66;;;19.20;37.68
76122;BME280;64853;53.200;6.080;2023-02-28T10:03:43;103337.88;;;19.23;37.50
76122;BME280;64853;53.200;6.080;2023-02-28T10:08:41;103331.84;;;19.26;37.74
76122;BME280;64853;53.200;6.080;2023-02-28T10:13:38;103336.31;;;19.27;37.30
76122;BME280;64853;53.200;6.080;2023-02-28T10:18:47;103336.31;;;19.27;37.10
76122;BME280;64853;53.200;6.080;2023-02-28T10:23:40;103329.09;;;19.26;37.59
76122;BME280;64853;53.200;6.080;2023-02-28T10:28:35;103328.63;;;19.29;37.61
76122;BME280;64853;53.200;6.080;2023-02-28T10:33:30;103324.19;;;19.28;37.21
76122;BME280;64853;53.200;6.080;2023-02-28T10:38:25;103331.25;;;19.24;38.00
76122;BME280;64853;53.200;6.080;2023-02-28T10:43:22;103311.19;;;19.17;38.92
76122;BME280;64853;53.200;6.080;2023-02-28T10:48:29;103329.84;;;19.33;39.08
76122;BME280;64853;53.200;6.080;2023-02-28T10:53:35;103295.66;;;19.16;38.87
76122;BME280;64853;53.200;6.080;2023-02-28T10:58:29;103284.59;;;19.04;38.42
76122;BME280;64853;53.200;6.080;2023-02-28T11:03:25;103328.63;;;19.29;38.36
76122;BME280;64853;53.200;6.080;2023-02-28T11:08:18;103323.56;;;19.26;38.04
76122;BME280;64853;53.200;6.080;2023-02-28T11:13:17;103322.25;;;19.28;38.09
76122;BME280;64853;53.200;6.080;2023-02-28T11:18:25;103315.66;;;19.29;38.23
76122;BME280;64853;53.200;6.080;2023-02-28T11:23:19;103251.97;;;18.94;38.22
76122;BME280;64853;53.200;6.080;2023-02-28T11:28:26;103310.97;;;19.30;38.38
76122;BME280;64853;53.200;6.080;2023-02-28T11:33:23;103280.63;;;19.11;38.60
76122;BME280;64853;53.200;6.080;2023-02-28T11:38:18;103263.78;;;19.01;38.43
76122;BME280;64853;53.200;6.080;2023-02-28T11:43:24;103314.19;;;19.27;38.72
76122;BME280;64853;53.200;6.080;2023-02-28T11:48:22;103305.91;;;19.27;38.52
76122;BME280;64853;53.200;6.080;2023-02-28T11:53:21;103305.53;;;19.23;38.13
76122;BME280;64853;53.200;6.080;2023-02-28T11:58:26;103287.50;;;19.21;37.95
76122;BME280;64853;53.200;6.080;2023-02-28T12:03:27;103296.66;;;19.33;38.33
76122;BME280;64853;53.200;6.080;2023-02-28T12:08:28;103283.66;;;19.22;39.42
76122;BME280;64853;53.200;6.080;2023-02-28T12:13:32;103294.72;;;19.34;39.39
76122;BME280;64853;53.200;6.080;2023-02-28T12:18:39;103281.03;;;19.27;39.71
76122;BME280;64853;53.200;6.080;2023-02-28T12:24:01;103280.03;;;19.63;40.17
76122;BME280;64853;53.200;6.080;2023-02-28T12:29:10;103279.56;;;19.90;38.26
76122;BME280;64853;53.200;6.080;2023-02-28T12:34:07;103268.34;;;19.97;38.21
76122;BME280;64853;53.200;6.080;2023-02-28T12:39:07;103271.75;;;19.99;38.29
76122;BME280;64853;53.200;6.080;2023-02-28T12:44:02;103251.03;;;19.78;38.26
76122;BME280;64853;53.200;6.080;2023-02-28T12:48:58;103264.41;;;19.93;38.30
76122;BME280;64853;53.200;6.080;2023-02-28T12:53:59;103267.19;;;19.93;41.85
76122;BME280;64853;53.200;6.080;2023-02-28T12:58:57;103264.16;;;19.94;40.60
76122;BME280;64853;53.200;6.080;2023-02-28T13:04:16;103246.06;;;20.15;39.09
76122;BME280;64853;53.200;6.080;2023-02-28T13:09:14;103239.47;;;20.16;38.83
76122;BME280;64853;53.200;6.080;2023-02-28T13:14:19;103227.09;;;20.07;37.71
76122;BME280;64853;53.200;6.080;2023-02-28T13:19:18;103235.88;;;20.04;38.61
76122;BME280;64853;53.200;6.080;2023-02-28T13:24:43;103220.72;;;19.95;38.68
76122;BME280;64853;53.200;6.080;2023-02-28T13:29:39;103231.94;;;19.88;39.17
76122;BME280;64853;53.200;6.080;2023-02-28T13:34:33;103204.75;;;19.61;37.35
76122;BME280;64853;53.200;6.080;2023-02-28T13:39:49;103230.34;;;19.57;35.05
76122;BME280;64853;53.200;6.080;2023-02-28T13:50:21;103216.25;;;19.35;34.94
76122;BME280;64853;53.200;6.080;2023-02-28T13:55:24;103210.97;;;19.21;36.79
76122;BME280;64853;53.200;6.080;2023-02-28T14:00:23;103219.63;;;19.25;36.19
76122;BME280;64853;53.200;6.080;2023-02-28T14:05:21;103213.63;;;19.28;36.50
76122;BME280;64853;53.200;6.080;2023-02-28T14:10:25;103208.47;;;19.43;37.36
76122;BME280;64853;53.200;6.080;2023-02-28T14:15:46;103214.13;;;19.60;37.42
76122;BME280;64853;53.200;6.080;2023-02-28T14:20:40;103214.47;;;19.64;37.66
76122;BME280;64853;53.200;6.080;2023-02-28T14:25:39;103217.50;;;19.74;37.53
76122;BME280;64853;53.200;6.080;2023-02-28T14:30:57;103196.72;;;19.60;37.78
76122;BME280;64853;53.200;6.080;2023-02-28T14:36:05;103221.97;;;19.75;38.79
76122;BME280;64853;53.200;6.080;2023-02-28T14:41:04;103223.13;;;19.79;38.06
76122;BME280;64853;53.200;6.080;2023-02-28T14:46:00;103212.69;;;19.70;38.31
76122;BME280;64853;53.200;6.080;2023-02-28T14:50:54;103197.88;;;19.64;38.75
76122;BME280;64853;53.200;6.080;2023-02-28T14:55:48;103199.22;;;19.73;38.24
76122;BME280;64853;53.200;6.080;2023-02-28T15:00:49;103211.25;;;19.79;38.68
76122;BME280;64853;53.200;6.080;2023-02-28T15:05:41;103204.75;;;19.73;38.37
76122;BME280;64853;53.200;6.080;2023-02-28T15:10:33;103209.47;;;19.61;39.09
76122;BME280;64853;53.200;6.080;2023-02-28T15:15:35;103198.13;;;19.51;38.88
76122;BME280;64853;53.200;6.080;2023-02-28T15:20:32;103194.88;;;19.54;38.29
76122;BME280;64853;53.200;6.080;2023-02-28T15:25:25;103202.47;;;19.70;38.76
76122;BME280;64853;53.200;6.080;2023-02-28T15:30:20;103196.34;;;19.80;38.35
76122;BME280;64853;53.200;6.080;2023-02-28T15:35:19;103198.88;;;19.81;37.98
76122;BME280;64853;53.200;6.080;2023-02-28T15:40:16;103186.59;;;19.77;38.30
76122;BME280;64853;53.200;6.080;2023-02-28T15:45:27;103171.09;;;19.64;38.62
76122;BME280;64853;53.200;6.080;2023-02-28T15:50:19;103184.78;;;19.71;38.42
76122;BME280;64853;53.200;6.080;2023-02-28T15:55:19;103191.88;;;19.67;38.30
76122;BME280;64853;53.200;6.080;2023-02-28T16:00:15;103170.94;;;19.47;38.16
76122;BME280;64853;53.200;6.080;2023-02-28T16:05:28;103202.47;;;19.58;38.64
76122;BME280;64853;53.200;6.080;2023-02-28T16:10:25;103195.34;;;19.51;38.28
76122;BME280;64853;53.200;6.080;2023-02-28T16:15:20;103197.16;;;19.57;38.31
76122;BME280;64853;53.200;6.080;2023-02-28T16:20:14;103199.91;;;19.57;38.32
76122;BME280;64853;53.200;6.080;2023-02-28T16:25:06;103200.28;;;19.48;38.03
76122;BME280;64853;53.200;6.080;2023-02-28T16:30:02;103200.88;;;19.39;38.21
76122;BME280;64853;53.200;6.080;2023-02-28T16:34:54;103209.50;;;19.30;38.78
76122;BME280;64853;53.200;6.080;2023-02-28T16:39:46;103216.03;;;19.36;38.91
76122;BME280;64853;53.200;6.080;2023-02-28T16:44:38;103202.91;;;19.20;38.69
76122;BME280;64853;53.200;6.080;2023-02-28T16:49:32;103217.69;;;19.25;39.68
76122;BME280;64853;53.200;6.080;2023-02-28T16:54:24;103198.34;;;19.14;40.33
76122;BME280;64853;53.200;6.080;2023-02-28T16:59:19;103222.84;;;19.22;40.54
76122;BME280;64853;53.200;6.080;2023-02-28T17:04:13;103227.25;;;18.99;41.16
76122;BME280;64853;53.200;6.080;2023-02-28T17:09:15;103228.59;;;19.08;40.77
76122;BME280;64853;53.200;6.080;2023-02-28T17:14:07;103234.97;;;19.21;40.38
76122;BME280;64853;53.200;6.080;2023-02-28T17:19:02;103241.13;;;19.23;40.17
76122;BME280;64853;53.200;6.080;2023-02-28T17:23:54;103242.69;;;19.19;40.25
76122;BME280;64853;53.200;6.080;2023-02-28T17:28:48;103239.31;;;19.17;40.06
76122;BME280;64853;53.200;6.080;2023-02-28T17:33:41;103218.50;;;19.02;40.33
76122;BME280;64853;53.200;6.080;2023-02-28T17:38:32;103248.91;;;19.14;40.51
76122;BME280;64853;53.200;6.080;2023-02-28T17:43:25;103240.50;;;19.09;41.11
76122;BME280;64853;53.200;6.080;2023-02-28T17:48:18;103240.03;;;19.12;41.10
76122;BME280;64853;53.200;6.080;2023-02-28T17:53:10;103248.91;;;19.14;40.82
76122;BME280;64853;53.200;6.080;2023-02-28T17:58:04;103251.69;;;19.26;40.48
76122;BME280;64853;53.200;6.080;2023-02-28T18:02:56;103273.31;;;19.29;40.30
76122;BME280;64853;53.200;6.080;2023-02-28T18:07:49;103265.50;;;19.26;40.24
76122;BME280;64853;53.200;6.080;2023-02-28T18:12:41;103262.28;;;19.29;40.35
76122;BME280;64853;53.200;6.080;2023-02-28T18:17:33;103266.59;;;19.25;40.31
76122;BME280;64853;53.200;6.080;2023-02-28T18:22:25;103259.38;;;19.24;39.97
76122;BME280;64853;53.200;6.080;2023-02-28T18:27:18;103263.84;;;19.25;40.46
76122;BME280;64853;53.200;6.080;2023-02-28T18:32:10;103265.66;;;19.31;40.99
76122;BME280;64853;53.200;6.080;2023-02-28T18:37:02;103255.91;;;19.28;41.50
76122;BME280;64853;53.200;6.080;2023-02-28T18:41:54;103252.19;;;19.23;42.46
76122;BME280;64853;53.200;6.080;2023-02-28T18:46:47;103262.91;;;19.31;43.01
76122;BME280;64853;53.200;6.080;2023-02-28T18:51:40;103254.44;;;19.26;41.58
76122;BME280;64853;53.200;6.080;2023-02-28T18:56:34;103267.19;;;19.27;41.18
76122;BME280;64853;53.200;6.080;2023-02-28T19:01:28;103263.25;;;19.23;41.21
76122;BME280;64853;53.200;6.080;2023-02-28T19:06:23;103261.19;;;19.30;40.99
76122;BME280;64853;53.200;6.080;2023-02-28T19:11:17;103257.31;;;19.19;40.93
76122;BME280;64853;53.200;6.080;2023-02-28T19:16:11;103265.28;;;19.27;40.76
76122;BME280;64853;53.200;6.080;2023-02-28T19:21:05;103264.91;;;19.24;40.29
76122;BME280;64853;53.200;6.080;2023-02-28T19:25:58;103249.75;;;19.15;40.85
76122;BME280;64853;53.200;6.080;2023-02-28T19:30:50;103268.78;;;19.23;40.67
76122;BME280;64853;53.200;6.080;2023-02-28T19:35:43;103254.56;;;19.19;40.83
76122;BME280;64853;53.200;6.080;2023-02-28T19:40:35;103268.78;;;19.23;40.69
76122;BME280;64853;53.200;6.080;2023-02-28T19:45:28;103272.50;;;19.28;43.17
76122;BME280;64853;53.200;6.080;2023-02-28T19:50:20;103273.81;;;19.26;41.31
76122;BME280;64853;53.200;6.080;2023-02-28T19:55:12;103282.59;;;19.35;41.95
76122;BME280;64853;53.200;6.080;2023-02-28T20:00:05;103277.19;;;19.28;40.80
76122;BME280;64853;53.200;6.080;2023-02-28T20:04:59;103270.91;;;19.21;41.24
76122;BME280;64853;53.200;6.080;2023-02-28T20:09:51;103280.56;;;19.30;41.64
76122;BME280;64853;53.200;6.080;2023-02-28T20:14:42;103294.31;;;19.48;46.13
76122;BME280;64853;53.200;6.080;2023-02-28T20:19:34;103292.59;;;19.47;43.65
76122;BME280;64853;53.200;6.080;2023-02-28T20:24:28;103295.84;;;19.44;41.97
76122;BME280;64853;53.200;6.080;2023-02-28T20:29:20;103285.13;;;19.36;41.68
76122;BME280;64853;53.200;6.080;2023-02-28T20:34:12;103286.06;;;19.30;41.86
76122;BME280;64853;53.200;6.080;2023-02-28T20:39:04;103284.50;;;19.22;41.82
76122;BME280;64853;53.200;6.080;2023-02-28T20:43:57;103277.38;;;19.15;41.50
76122;BME280;64853;53.200;6.080;2023-02-28T20:48:51;103265.31;;;18.97;41.68
76122;BME280;64853;53.200;6.080;2023-02-28T20:53:43;103273.59;;;18.97;41.85
76122;BME280;64853;53.200;6.080;2023-02-28T20:58:35;103280.22;;;18.96;41.41
76122;BME280;64853;53.200;6.080;2023-02-28T21:03:29;103281.16;;;18.90;41.31
76122;BME280;64853;53.200;6.080;2023-02-28T21:08:21;103293.50;;;18.87;41.24
76122;BME280;64853;53.200;6.080;2023-02-28T21:13:13;103292.53;;;18.82;41.47
76122;BME280;64853;53.200;6.080;2023-02-28T21:18:05;103286.81;;;18.76;41.32
76122;BME280;64853;53.200;6.080;2023-02-28T21:22:58;103297.25;;;18.74;40.94
76122;BME280;64853;53.200;6.080;2023-02-28T21:27:50;103271.38;;;18.57;40.79
76122;BME280;64853;53.200;6.080;2023-02-28T21:32:44;103300.34;;;18.66;40.80
76122;BME280;64853;53.200;6.080;2023-02-28T21:37:36;103298.06;;;18.63;40.58
76122;BME280;64853;53.200;6.080;2023-02-28T21:42:30;103307.88;;;18.59;40.78
76122;BME280;64853;53.200;6.080;2023-02-28T21:47:22;103313.38;;;18.59;41.03
76122;BME280;64853;53.200;6.080;2023-02-28T21:52:14;103308.78;;;18.53;40.76
76122;BME280;64853;53.200;6.080;2023-02-28T21:57:11;103305.88;;;18.48;40.67
76122;BME280;64853;53.200;6.080;2023-02-28T22:02:05;103293.69;;;18.37;40.57
76122;BME280;64853;53.200;6.080;2023-02-28T22:06:56;103312.31;;;18.42;40.47
76122;BME280;64853;53.200;6.080;2023-02-28T22:11:49;103289.94;;;18.31;40.78
76122;BME280;64853;53.200;6.080;2023-02-28T22:16:41;103300.53;;;18.34;40.43
76122;BME280;64853;53.200;6.080;2023-02-28T22:21:34;103304.81;;;18.30;40.26
76122;BME280;64853;53.200;6.080;2023-02-28T22:26:26;103310.78;;;18.27;40.52
76122;BME280;64853;53.200;6.080;2023-02-28T22:31:21;103316.75;;;18.24;40.41
76122;BME280;64853;53.200;6.080;2023-02-28T22:36:14;103321.06;;;18.20;40.11
76122;BME280;64853;53.200;6.080;2023-02-28T22:41:08;103320.06;;;18.14;40.43
76122;BME280;64853;53.200;6.080;2023-02-28T22:46:01;103312.75;;;18.01;40.08
76122;BME280;64853;53.200;6.080;2023-02-28T22:51:00;103327.56;;;18.07;40.35
76122;BME280;64853;53.200;6.080;2023-02-28T22:55:54;103321.50;;;17.98;40.17
76122;BME280;64853;53.200;6.080;2023-02-28T23:00:48;103327.63;;;18.00;40.10
76122;BME280;64853;53.200;6.080;2023-02-28T23:05:44;103323.59;;;17.96;40.09
76122;BME280;64853;53.200;6.080;2023-02-28T23:10:39;103321.13;;;17.88;40.11
76122;BME280;64853;53.200;6.080;2023-02-28T23:15:31;103304.63;;;17.81;39.90
76122;BME280;64853;53.200;6.080;2023-02-28T23:20:25;103311.41;;;17.85;39.91
76122;BME280;64853;53.200;6.080;2023-02-28T23:25:17;103305.31;;;17.77;39.82
76122;BME280;64853;53.200;6.080;2023-02-28T23:30:10;103279.16;;;17.61;40.03
76122;BME280;64853;53.200;6.080;2023-02-28T23:35:04;103320.19;;;17.76;39.74
76122;BME280;64853;53.200;6.080;2023-02-28T23:39:58;103299.91;;;17.63;39.71
76122;BME280;64853;53.200;6.080;2023-02-28T23:44:51;103317.72;;;17.67;39.96
76122;BME280;64853;53.200;6.080;2023-02-28T23:49:43;103318.16;;;17.64;39.71
76122;BME280;64853;53.200;6.080;2023-02-28T23:54:37;103311.41;;;17.60;39.55
76122;BME280;64853;53.200;6.080;2023-02-28T23:59:30;103288.03;;;17.38;39.66
